Time;durP1;ratioP1;P1;durP2;ratioP2;P2;SDS_P1;SDS_P2;PMS_P1;PMS_P2;Temp;Humidity;BMP_temperature;BMP_pressure;BME280_temperature;BME280_humidity;BME280_pressure;Samples;Min_cycle;Max_cycle;Signal;HPM_P1;HPM_P2
2021/10/01 00:00:48;;;;;;;8.55;2.20;;;;;;;;;;5023871;28;20052;-63
2021/10/01 00:03:14;;;;;;;9.57;1.65;;;;;;;;;;5026502;28;20095;-64
2021/10/01 00:05:42;;;;;;;7.43;1.75;;;;;;;;;;5028132;28;20074;-63
2021/10/01 00:08:08;;;;;;;7.90;1.40;;;;;;;;;;5023684;28;20054;-63
2021/10/01 00:10:35;;;;;;;6.90;1.60;;;;;;;;;;5028300;28;20417;-63
2021/10/01 00:13:01;;;;;;;7.07;2.08;;;;;;;;;;5026075;28;20393;-63
2021/10/01 00:15:28;;;;;;;5.20;1.55;;;;;;;;;;5022399;28;20041;-63
2021/10/01 00:17:54;;;;;;;6.93;1.83;;;;;;;;;;5024982;28;20466;-63
2021/10/01 00:20:21;;;;;;;7.28;1.55;;;;;;;;;;5029304;28;20439;-63
2021/10/01 00:22:47;;;;;;;7.47;1.67;;;;;;;;;;5027465;28;20045;-64
2021/10/01 00:25:13;;;;;;;8.80;1.70;;;;;;;;;;5029051;28;20088;-63
2021/10/01 00:27:39;;;;;;;6.88;1.92;;;;;;;;;;5026303;28;20443;-63
2021/10/01 00:30:05;;;;;;;7.15;1.80;;;;;;;;;;5022701;28;20405;-63
2021/10/01 00:32:32;;;;;;;6.65;1.80;;;;;;;;;;5026155;28;20052;-63
2021/10/01 00:35:00;;;;;;;6.32;1.67;;;;;;;;;;5028196;28;20037;-63
2021/10/01 00:37:26;;;;;;;12.00;2.00;;;;;;;;;;5023068;28;20164;-63
2021/10/01 00:39:53;;;;;;;4.93;1.70;;;;;;;;;;5026289;28;20064;-63
2021/10/01 00:42:20;;;;;;;10.05;1.27;;;;;;;;;;5024753;28;20046;-64
2021/10/01 00:44:46;;;;;;;8.50;1.85;;;;;;;;;;5025801;28;20187;-63
2021/10/01 00:47:12;;;;;;;7.40;2.03;;;;;;;;;;5023067;28;20077;-63
2021/10/01 00:49:39;;;;;;;8.10;2.42;;;;;;;;;;5022874;28;20770;-63
2021/10/01 00:52:05;;;;;;;9.13;1.63;;;;;;;;;;5025414;28;20392;-63
2021/10/01 00:54:31;;;;;;;4.72;1.38;;;;;;;;;;5021856;28;20504;-63
2021/10/01 00:56:59;;;;;;;8.15;1.63;;;;;;;;;;5022487;28;20567;-63
2021/10/01 00:59:25;;;;;;;7.60;1.83;;;;;;;;;;5021428;28;20492;-63
2021/10/01 01:01:52;;;;;;;8.48;2.05;;;;;;;;;;5023634;28;20045;-63
2021/10/01 01:04:19;;;;;;;8.07;1.85;;;;;;;;;;5021575;28;20124;-63
2021/10/01 01:06:51;;;;;;;10.55;2.00;;;;;;;;;;5026525;28;20040;-63
2021/10/01 01:09:24;;;;;;;6.70;1.85;;;;;;;;;;5029189;28;20133;-63
2021/10/01 01:11:59;;;;;;;9.80;1.80;;;;;;;;;;5026162;28;20041;-64
2021/10/01 01:14:44;;;;;;;7.78;1.70;;;;;;;;;;5026834;28;20030;-63
2021/10/01 01:17:15;;;;;;;7.20;1.98;;;;;;;;;;5027327;28;20049;-63
2021/10/01 01:19:50;;;;;;;8.55;2.50;;;;;;;;;;5026780;28;20040;-63
2021/10/01 01:22:23;;;;;;;10.43;1.90;;;;;;;;;;5025987;28;20520;-63
2021/10/01 01:24:49;;;;;;;7.93;1.70;;;;;;;;;;5027743;28;20053;-63
2021/10/01 01:27:19;;;;;;;4.43;1.88;;;;;;;;;;5030669;28;20432;-63
2021/10/01 01:30:01;;;;;;;9.30;2.65;;;;;;;;;;5026350;28;20453;-63
2021/10/01 01:32:28;;;;;;;8.48;2.20;;;;;;;;;;5023631;28;20050;-63
2021/10/01 01:34:59;;;;;;;6.93;1.75;;;;;;;;;;5028654;28;20437;-63
2021/10/01 01:37:26;;;;;;;8.73;1.92;;;;;;;;;;5026294;28;20045;-63
2021/10/01 01:39:54;;;;;;;7.00;1.75;;;;;;;;;;5026477;28;20449;-63
2021/10/01 01:42:20;;;;;;;7.30;2.05;;;;;;;;;;5021902;28;20096;-63
2021/10/01 01:44:47;;;;;;;9.25;1.83;;;;;;;;;;5026190;28;20394;-63
2021/10/01 01:47:14;;;;;;;7.10;2.15;;;;;;;;;;5026589;28;20041;-63
2021/10/01 01:49:41;;;;;;;7.03;2.22;;;;;;;;;;5029436;28;20041;-63
2021/10/01 01:52:08;;;;;;;7.28;2.20;;;;;;;;;;5030723;28;20402;-63
2021/10/01 01:54:35;;;;;;;12.20;2.28;;;;;;;;;;5026617;28;20045;-63
2021/10/01 01:57:02;;;;;;;13.15;2.35;;;;;;;;;;5030171;28;20038;-63
2021/10/01 01:59:29;;;;;;;10.43;2.33;;;;;;;;;;5014914;28;20057;-63
2021/10/01 02:01:56;;;;;;;14.77;2.85;;;;;;;;;;5031965;28;20053;-63
2021/10/01 02:04:23;;;;;;;4.85;1.60;;;;;;;;;;5026532;28;20160;-63
2021/10/01 02:06:49;;;;;;;7.80;1.92;;;;;;;;;;5028071;28;20486;-63
2021/10/01 02:09:16;;;;;;;10.40;2.22;;;;;;;;;;5030893;28;20029;-63
2021/10/01 02:11:44;;;;;;;6.13;1.90;;;;;;;;;;5020461;28;20052;-63
2021/10/01 02:14:11;;;;;;;12.52;1.98;;;;;;;;;;5031545;28;20042;-64
2021/10/01 02:16:37;;;;;;;7.15;2.00;;;;;;;;;;5028333;28;20489;-63
2021/10/01 02:19:04;;;;;;;10.02;2.08;;;;;;;;;;5029791;28;20041;-63
2021/10/01 02:21:31;;;;;;;9.02;2.08;;;;;;;;;;5031409;28;20038;-63
2021/10/01 02:23:57;;;;;;;8.07;1.75;;;;;;;;;;4997932;28;20057;-63
2021/10/01 02:26:38;;;;;;;10.68;2.28;;;;;;;;;;5030013;28;20120;-63
2021/10/01 02:29:09;;;;;;;11.20;2.47;;;;;;;;;;5026308;28;20057;-64
2021/10/01 02:31:52;;;;;;;7.07;2.42;;;;;;;;;;5028695;28;20042;-63
2021/10/01 02:34:21;;;;;;;8.68;2.20;;;;;;;;;;5028876;28;20037;-64
2021/10/01 02:36:47;;;;;;;5.82;1.50;;;;;;;;;;5025864;28;20173;-63
2021/10/01 02:39:13;;;;;;;9.13;2.35;;;;;;;;;;5027558;28;20057;-63
2021/10/01 02:41:39;;;;;;;5.88;1.95;;;;;;;;;;5025826;28;20105;-63
2021/10/01 02:44:06;;;;;;;11.80;1.83;;;;;;;;;;5024564;28;20060;-63
2021/10/01 02:46:33;;;;;;;7.18;2.13;;;;;;;;;;5030018;28;20136;-63
2021/10/01 02:48:59;;;;;;;8.48;2.25;;;;;;;;;;5032192;28;20033;-63
2021/10/01 02:51:28;;;;;;;6.78;1.95;;;;;;;;;;5026346;28;20033;-63
2021/10/01 02:53:57;;;;;;;7.53;2.28;;;;;;;;;;5028242;28;20053;-63
2021/10/01 02:56:28;;;;;;;10.45;2.42;;;;;;;;;;5029705;28;20059;-63
2021/10/01 02:58:57;;;;;;;6.57;2.08;;;;;;;;;;5027866;28;20492;-63
2021/10/01 03:01:24;;;;;;;14.27;2.47;;;;;;;;;;5024145;28;20124;-63
2021/10/01 03:03:52;;;;;;;9.82;2.10;;;;;;;;;;5023867;28;20147;-63
2021/10/01 03:06:20;;;;;;;8.63;1.83;;;;;;;;;;5027325;28;20033;-63
2021/10/01 03:08:46;;;;;;;7.60;1.77;;;;;;;;;;5030474;28;20048;-63
2021/10/01 03:11:14;;;;;;;8.13;2.00;;;;;;;;;;5027558;28;20412;-63
2021/10/01 03:13:42;;;;;;;7.60;2.20;;;;;;;;;;5007310;28;20051;-63
2021/10/01 03:16:09;;;;;;;7.43;2.58;;;;;;;;;;5008144;28;20038;-63
2021/10/01 03:18:35;;;;;;;7.50;2.28;;;;;;;;;;5024175;28;20049;-63
2021/10/01 03:21:03;;;;;;;5.53;1.90;;;;;;;;;;5027157;28;20038;-63
2021/10/01 03:23:29;;;;;;;7.82;1.83;;;;;;;;;;5029494;28;20374;-63
2021/10/01 03:25:58;;;;;;;9.60;2.72;;;;;;;;;;5028491;28;20437;-63
2021/10/01 03:28:24;;;;;;;11.00;2.35;;;;;;;;;;5030034;28;20133;-63
2021/10/01 03:30:51;;;;;;;5.80;1.60;;;;;;;;;;5025759;28;20084;-63
2021/10/01 03:33:17;;;;;;;6.53;2.03;;;;;;;;;;5028581;28;20069;-63
2021/10/01 03:35:44;;;;;;;8.75;2.53;;;;;;;;;;5024725;28;20042;-63
2021/10/01 03:38:11;;;;;;;7.18;2.10;;;;;;;;;;5025301;28;20393;-64
2021/10/01 03:40:37;;;;;;;6.85;1.70;;;;;;;;;;5010944;28;20108;-63
2021/10/01 03:43:03;;;;;;;11.60;1.83;;;;;;;;;;5011047;28;20438;-63
2021/10/01 03:45:30;;;;;;;9.98;2.40;;;;;;;;;;5022546;28;20096;-63
2021/10/01 03:47:56;;;;;;;9.13;2.30;;;;;;;;;;5026747;28;20087;-63
2021/10/01 03:50:25;;;;;;;7.07;1.95;;;;;;;;;;5024813;28;20489;-63
2021/10/01 03:52:51;;;;;;;4.35;1.88;;;;;;;;;;5030337;28;20045;-63
2021/10/01 03:55:23;;;;;;;8.63;1.90;;;;;;;;;;5025885;28;20069;-64
2021/10/01 03:57:50;;;;;;;6.45;1.88;;;;;;;;;;5027039;28;20041;-64
2021/10/01 04:00:17;;;;;;;7.07;2.15;;;;;;;;;;5023636;28;20578;-63
2021/10/01 04:02:43;;;;;;;10.40;2.15;;;;;;;;;;5025077;28;20045;-63
2021/10/01 04:05:10;;;;;;;8.30;2.22;;;;;;;;;;5025337;28;20484;-63
2021/10/01 04:07:36;;;;;;;8.50;1.85;;;;;;;;;;5023830;28;20132;-63
2021/10/01 04:10:03;;;;;;;8.30;1.95;;;;;;;;;;5011666;28;20077;-63
2021/10/01 04:12:29;;;;;;;8.95;2.10;;;;;;;;;;5025670;28;20083;-63
2021/10/01 04:14:55;;;;;;;11.00;2.70;;;;;;;;;;5009374;28;20045;-63
2021/10/01 04:17:21;;;;;;;8.85;1.80;;;;;;;;;;5026084;28;20043;-63
2021/10/01 04:19:49;;;;;;;7.32;2.35;;;;;;;;;;5029586;28;20037;-63
2021/10/01 04:22:15;;;;;;;7.25;2.35;;;;;;;;;;5008712;28;20710;-63
2021/10/01 04:24:41;;;;;;;7.05;1.90;;;;;;;;;;5028773;28;20041;-63
2021/10/01 04:27:07;;;;;;;6.93;1.65;;;;;;;;;;5024610;28;20481;-63
2021/10/01 04:29:34;;;;;;;8.90;1.80;;;;;;;;;;5012298;28;20038;-63
2021/10/01 04:32:04;;;;;;;6.45;1.90;;;;;;;;;;5025754;28;20045;-63
2021/10/01 04:34:33;;;;;;;9.68;2.22;;;;;;;;;;5030091;28;20037;-63
2021/10/01 04:36:59;;;;;;;9.18;2.50;;;;;;;;;;5028793;28;20037;-63
2021/10/01 04:39:26;;;;;;;8.23;2.15;;;;;;;;;;5009132;28;20190;-63
2021/10/01 04:41:52;;;;;;;5.38;1.70;;;;;;;;;;5008414;28;20193;-63
2021/10/01 04:44:18;;;;;;;7.80;1.85;;;;;;;;;;5024692;28;20060;-63
2021/10/01 04:46:45;;;;;;;7.75;1.63;;;;;;;;;;5023322;28;20400;-63
2021/10/01 04:49:12;;;;;;;6.57;1.83;;;;;;;;;;5029885;28;20042;-63
2021/10/01 04:51:39;;;;;;;6.72;1.63;;;;;;;;;;5028267;28;20073;-63
2021/10/01 04:54:05;;;;;;;6.72;1.98;;;;;;;;;;5012436;28;20045;-63
2021/10/01 04:56:31;;;;;;;9.65;1.73;;;;;;;;;;5023504;28;20069;-63
2021/10/01 04:58:57;;;;;;;4.97;1.75;;;;;;;;;;5010214;28;20081;-63
2021/10/01 05:01:23;;;;;;;8.35;1.80;;;;;;;;;;5027502;28;20119;-63
2021/10/01 05:03:50;;;;;;;9.88;1.70;;;;;;;;;;5010392;28;20073;-63
2021/10/01 05:06:16;;;;;;;9.00;2.17;;;;;;;;;;4992367;28;20481;-63
2021/10/01 05:08:42;;;;;;;10.45;2.88;;;;;;;;;;5023604;28;20508;-63
2021/10/01 05:11:08;;;;;;;8.05;2.03;;;;;;;;;;5010353;28;20450;-63
2021/10/01 05:13:34;;;;;;;8.07;1.95;;;;;;;;;;5020460;28;20037;-63
2021/10/01 05:16:02;;;;;;;11.13;1.70;;;;;;;;;;5018654;28;20136;-63
2021/10/01 05:18:28;;;;;;;8.43;1.90;;;;;;;;;;5009572;28;20046;-63
2021/10/01 05:21:02;;;;;;;10.15;1.90;;;;;;;;;;5011251;28;20192;-63
2021/10/01 05:23:29;;;;;;;11.40;2.17;;;;;;;;;;5025010;28;20121;-67
2021/10/01 05:25:55;;;;;;;6.15;1.65;;;;;;;;;;5027718;28;20444;-64
2021/10/01 05:28:21;;;;;;;9.20;2.00;;;;;;;;;;5021345;28;20431;-64
2021/10/01 05:30:47;;;;;;;7.75;2.00;;;;;;;;;;5023891;28;20115;-64
2021/10/01 05:33:14;;;;;;;9.13;1.88;;;;;;;;;;5024655;28;20046;-64
2021/10/01 05:35:43;;;;;;;5.57;1.95;;;;;;;;;;5011212;28;20111;-64
2021/10/01 05:38:10;;;;;;;7.25;2.05;;;;;;;;;;5025847;28;20057;-63
2021/10/01 05:40:36;;;;;;;6.70;1.75;;;;;;;;;;5027206;28;20053;-64
2021/10/01 05:43:03;;;;;;;9.48;1.58;;;;;;;;;;5023131;28;20504;-63
2021/10/01 05:45:30;;;;;;;10.32;1.98;;;;;;;;;;5012573;28;20045;-64
2021/10/01 05:47:56;;;;;;;7.43;1.70;;;;;;;;;;5026469;28;20046;-64
2021/10/01 05:50:25;;;;;;;6.82;1.55;;;;;;;;;;5024958;28;20090;-63
2021/10/01 05:52:55;;;;;;;8.57;1.73;;;;;;;;;;5011354;28;20091;-63
2021/10/01 05:55:21;;;;;;;5.85;1.42;;;;;;;;;;5022274;28;20170;-64
2021/10/01 05:57:47;;;;;;;9.18;1.83;;;;;;;;;;5001992;28;20522;-63
2021/10/01 06:00:14;;;;;;;7.10;2.05;;;;;;;;;;5025271;28;20048;-63
2021/10/01 06:02:41;;;;;;;6.70;1.73;;;;;;;;;;5026068;28;20076;-63
2021/10/01 06:05:08;;;;;;;6.53;2.00;;;;;;;;;;5021599;28;20378;-63
2021/10/01 06:07:34;;;;;;;7.47;1.70;;;;;;;;;;5002265;28;20041;-63
2021/10/01 06:10:00;;;;;;;11.52;2.00;;;;;;;;;;5026115;28;20460;-63
2021/10/01 06:12:26;;;;;;;8.63;2.22;;;;;;;;;;5026156;28;20394;-64
2021/10/01 06:14:53;;;;;;;9.07;1.98;;;;;;;;;;5027764;28;20117;-63
2021/10/01 06:17:19;;;;;;;10.30;2.30;;;;;;;;;;5027214;28;20042;-64
2021/10/01 06:19:45;;;;;;;10.75;1.70;;;;;;;;;;5013425;28;20382;-63
2021/10/01 06:22:12;;;;;;;10.18;1.92;;;;;;;;;;5011494;28;20046;-63
2021/10/01 06:24:38;;;;;;;9.20;1.95;;;;;;;;;;5027005;28;20045;-63
2021/10/01 06:27:05;;;;;;;10.93;1.85;;;;;;;;;;5011635;28;20530;-64
2021/10/01 06:29:32;;;;;;;6.32;1.90;;;;;;;;;;5032596;28;20037;-64
2021/10/01 06:31:58;;;;;;;10.10;1.65;;;;;;;;;;5028778;28;20397;-64
2021/10/01 06:34:24;;;;;;;9.30;1.60;;;;;;;;;;5012902;28;20049;-64
2021/10/01 06:36:50;;;;;;;6.85;1.58;;;;;;;;;;5023346;28;20052;-64
2021/10/01 06:39:17;;;;;;;5.13;1.80;;;;;;;;;;5028087;28;20044;-64
2021/10/01 06:41:43;;;;;;;6.93;1.45;;;;;;;;;;5009273;28;20136;-64
2021/10/01 06:44:13;;;;;;;8.15;1.83;;;;;;;;;;5011477;28;20441;-64
2021/10/01 06:49:22;;;;;;;11.45;1.80;;;;;;;;;;5026761;28;20511;-64
2021/10/01 06:52:14;;;;;;;6.35;1.50;;;;;;;;;;5025506;28;20096;-64
2021/10/01 07:36:11;;;;;;;5.65;1.50;;;;;;;;;;5022736;28;20110;-63
2021/10/01 07:39:12;;;;;;;8.27;1.45;;;;;;;;;;5021912;28;20045;-64
2021/10/01 08:20:05;;;;;;;7.68;2.28;;;;;;;;;;5028461;28;20118;-63
2021/10/01 08:22:31;;;;;;;7.03;2.22;;;;;;;;;;5025968;28;20132;-63
2021/10/01 08:24:57;;;;;;;8.70;2.00;;;;;;;;;;5021633;28;20041;-64
2021/10/01 08:27:24;;;;;;;6.38;1.70;;;;;;;;;;5026309;28;20049;-63
2021/10/01 08:29:50;;;;;;;7.30;2.38;;;;;;;;;;4998266;28;20112;-63
2021/10/01 08:32:16;;;;;;;5.22;1.77;;;;;;;;;;5024916;28;20041;-63
2021/10/01 08:34:45;;;;;;;7.38;1.88;;;;;;;;;;5022440;28;20041;-64
2021/10/01 08:37:13;;;;;;;8.05;1.73;;;;;;;;;;5021215;28;20101;-63
2021/10/01 08:39:39;;;;;;;7.50;2.00;;;;;;;;;;5023512;28;20505;-63
2021/10/01 08:42:06;;;;;;;13.05;1.98;;;;;;;;;;5025803;28;20037;-65
2021/10/01 08:44:33;;;;;;;4.07;1.40;;;;;;;;;;5028334;28;20063;-63
2021/10/01 08:47:02;;;;;;;7.53;1.60;;;;;;;;;;5033551;28;20048;-63
2021/10/01 08:49:32;;;;;;;9.98;1.88;;;;;;;;;;5028885;28;20060;-64
2021/10/01 08:51:58;;;;;;;5.35;1.40;;;;;;;;;;5028175;28;20075;-64
2021/10/01 08:54:25;;;;;;;8.75;2.70;;;;;;;;;;5027811;28;20048;-64
2021/10/01 08:56:51;;;;;;;5.82;1.70;;;;;;;;;;5023342;28;20466;-64
2021/10/01 08:59:17;;;;;;;5.57;1.60;;;;;;;;;;5012280;28;20527;-63
2021/10/01 09:01:44;;;;;;;9.40;1.77;;;;;;;;;;5025874;28;20481;-64
2021/10/01 09:04:12;;;;;;;6.80;1.80;;;;;;;;;;5007165;28;20132;-64
2021/10/01 09:06:38;;;;;;;8.20;1.65;;;;;;;;;;5003308;28;20442;-63
2021/10/01 09:09:05;;;;;;;7.75;1.85;;;;;;;;;;5000550;28;20069;-64
2021/10/01 09:11:33;;;;;;;6.95;2.17;;;;;;;;;;5019204;28;20034;-64
2021/10/01 09:14:02;;;;;;;7.72;1.85;;;;;;;;;;5016783;28;20053;-63
2021/10/01 09:16:29;;;;;;;11.88;2.30;;;;;;;;;;5019962;28;20046;-63
2021/10/01 09:18:55;;;;;;;8.27;1.70;;;;;;;;;;5023886;28;20033;-62
2021/10/01 09:21:25;;;;;;;6.70;1.63;;;;;;;;;;5019645;28;20056;-62
2021/10/01 09:23:58;;;;;;;9.70;2.15;;;;;;;;;;5020149;28;20050;-62
2021/10/01 09:26:25;;;;;;;7.15;2.05;;;;;;;;;;5021748;28;20124;-62
2021/10/01 09:28:55;;;;;;;8.23;1.83;;;;;;;;;;5019887;28;20176;-62
2021/10/01 09:31:43;;;;;;;5.63;1.50;;;;;;;;;;5025443;28;20080;-62
2021/10/01 09:34:11;;;;;;;5.80;1.60;;;;;;;;;;5005124;28;20049;-62
2021/10/01 09:36:38;;;;;;;6.50;1.60;;;;;;;;;;5026012;28;20030;-62
2021/10/01 09:39:05;;;;;;;3.92;1.50;;;;;;;;;;5026324;28;20050;-62
2021/10/01 09:41:32;;;;;;;9.52;2.28;;;;;;;;;;5022460;28;20050;-62
2021/10/01 09:44:19;;;;;;;6.88;1.60;;;;;;;;;;5012059;28;20389;-62
2021/10/01 09:46:48;;;;;;;8.55;1.35;;;;;;;;;;5031118;28;20037;-62
2021/10/01 09:49:15;;;;;;;7.25;1.70;;;;;;;;;;5034044;28;20061;-62
2021/10/01 09:51:47;;;;;;;4.97;1.67;;;;;;;;;;5033848;28;20545;-63
2021/10/01 09:54:15;;;;;;;7.60;2.08;;;;;;;;;;5018480;28;20041;-63
2021/10/01 09:56:41;;;;;;;5.68;1.70;;;;;;;;;;5032432;28;20064;-63
2021/10/01 09:59:10;;;;;;;6.57;1.45;;;;;;;;;;5032936;28;20271;-62
2021/10/01 10:01:57;;;;;;;8.48;2.00;;;;;;;;;;5015490;28;20073;-63
2021/10/01 10:04:23;;;;;;;5.35;1.50;;;;;;;;;;5032502;28;20045;-62
2021/10/01 10:06:49;;;;;;;8.40;1.88;;;;;;;;;;5032983;28;20041;-63
2021/10/01 10:09:15;;;;;;;5.38;1.67;;;;;;;;;;5031187;28;20097;-63
2021/10/01 10:11:42;;;;;;;6.53;1.90;;;;;;;;;;5033914;28;20046;-63
2021/10/01 10:14:10;;;;;;;4.35;1.45;;;;;;;;;;5032428;28;20705;-63
2021/10/01 10:16:36;;;;;;;5.95;1.27;;;;;;;;;;5030585;28;20507;-63
2021/10/01 10:19:06;;;;;;;6.95;1.90;;;;;;;;;;5032576;28;20096;-63
2021/10/01 10:21:32;;;;;;;6.88;1.73;;;;;;;;;;5018610;28;20059;-64
2021/10/01 10:23:59;;;;;;;6.97;1.63;;;;;;;;;;5015054;28;20130;-64
2021/10/01 10:26:26;;;;;;;6.55;1.70;;;;;;;;;;5032560;28;20038;-63
2021/10/01 10:28:53;;;;;;;6.85;1.77;;;;;;;;;;5032354;28;20382;-63
2021/10/01 10:31:19;;;;;;;5.35;2.03;;;;;;;;;;5031670;28;20060;-63
2021/10/01 10:33:46;;;;;;;12.77;2.47;;;;;;;;;;5029271;28;20397;-62
2021/10/01 10:36:35;;;;;;;6.25;2.05;;;;;;;;;;5019804;28;20049;-62
2021/10/01 10:39:10;;;;;;;7.50;1.92;;;;;;;;;;5030873;28;20095;-63
2021/10/01 10:41:38;;;;;;;6.18;1.52;;;;;;;;;;5031022;28;20041;-63
2021/10/01 10:44:04;;;;;;;5.55;1.98;;;;;;;;;;5031160;28;20168;-63
2021/10/01 10:46:36;;;;;;;6.47;1.90;;;;;;;;;;5031984;28;20038;-63
2021/10/01 10:49:21;;;;;;;5.38;1.48;;;;;;;;;;5031690;28;20068;-63
2021/10/01 10:52:11;;;;;;;6.47;1.50;;;;;;;;;;5019902;28;20435;-63
2021/10/01 10:54:39;;;;;;;7.82;1.98;;;;;;;;;;5013265;28;20053;-63
2021/10/01 10:57:25;;;;;;;4.88;1.70;;;;;;;;;;5031383;28;20092;-63
2021/10/01 10:59:54;;;;;;;6.40;1.60;;;;;;;;;;5013580;28;20049;-63
2021/10/01 11:02:27;;;;;;;8.10;1.73;;;;;;;;;;5009803;28;20128;-63
2021/10/01 11:05:12;;;;;;;6.03;1.70;;;;;;;;;;5016281;28;20042;-63
2021/10/01 11:07:49;;;;;;;7.05;2.75;;;;;;;;;;5031711;28;20053;-62
2021/10/01 11:10:34;;;;;;;6.80;2.10;;;;;;;;;;5030786;28;20152;-63
2021/10/01 11:13:18;;;;;;;9.23;2.13;;;;;;;;;;5028754;28;20402;-64
2021/10/01 11:16:03;;;;;;;12.65;1.92;;;;;;;;;;5031257;28;20057;-63
2021/10/01 11:18:29;;;;;;;7.65;2.10;;;;;;;;;;5029992;28;20064;-62
2021/10/01 11:20:56;;;;;;;8.07;1.92;;;;;;;;;;5031197;28;20041;-62
2021/10/01 11:23:22;;;;;;;5.68;1.50;;;;;;;;;;5029375;28;20516;-62
2021/10/01 11:25:49;;;;;;;7.28;2.53;;;;;;;;;;5028828;28;20489;-71
2021/10/01 11:28:15;;;;;;;7.95;1.70;;;;;;;;;;5030288;28;20781;-64
2021/10/01 11:30:47;;;;;;;5.32;1.65;;;;;;;;;;5030236;28;20128;-63
2021/10/01 11:33:14;;;;;;;6.78;2.53;;;;;;;;;;5030783;28;20413;-63
2021/10/01 11:35:46;;;;;;;8.32;1.75;;;;;;;;;;5007046;28;20129;-63
2021/10/01 11:38:20;;;;;;;7.53;2.05;;;;;;;;;;5023989;28;20049;-64
2021/10/01 11:40:47;;;;;;;;;;;;;;;;;;5008482;28;20045;-63
2021/10/01 11:43:14;;;;;;;6.55;1.58;;;;;;;;;;5026990;28;19972;-63
2021/10/01 11:45:43;;;;;;;5.07;1.60;;;;;;;;;;5024932;28;20116;-63
2021/10/01 11:48:11;;;;;;;7.63;1.50;;;;;;;;;;5025539;28;20045;-63
2021/10/01 11:50:39;;;;;;;4.45;1.35;;;;;;;;;;5025902;28;20520;-62
2021/10/01 11:53:06;;;;;;;9.05;1.80;;;;;;;;;;5011953;28;20131;-63
2021/10/01 11:55:35;;;;;;;6.68;2.03;;;;;;;;;;5028682;28;20041;-63
2021/10/01 11:58:02;;;;;;;8.25;2.28;;;;;;;;;;5012664;28;20073;-62
2021/10/01 12:00:28;;;;;;;4.65;1.80;;;;;;;;;;5008872;28;20426;-63
2021/10/01 12:02:55;;;;;;;5.25;1.80;;;;;;;;;;5009303;28;20094;-62
2021/10/01 12:05:30;;;;;;;5.13;1.77;;;;;;;;;;5002396;28;20048;-62
2021/10/01 12:07:58;;;;;;;8.68;2.92;;;;;;;;;;5001652;28;20096;-63
2021/10/01 12:10:25;;;;;;;9.57;2.92;;;;;;;;;;5007104;28;20045;-63
2021/10/01 12:13:03;;;;;;;6.65;2.50;;;;;;;;;;5011109;28;20061;-63
2021/10/01 12:15:34;;;;;;;8.25;3.28;;;;;;;;;;5005789;28;20515;-63
2021/10/01 12:18:01;;;;;;;11.00;3.72;;;;;;;;;;5011014;28;20046;-62
2021/10/01 12:20:27;;;;;;;10.45;3.70;;;;;;;;;;5001364;28;20050;-62
2021/10/01 12:22:53;;;;;;;9.55;4.07;;;;;;;;;;4999912;28;20466;-63
2021/10/01 12:25:25;;;;;;;11.35;4.53;;;;;;;;;;5002188;28;20321;-63
2021/10/01 12:27:51;;;;;;;9.93;4.53;;;;;;;;;;5007107;28;20411;-63
2021/10/01 12:30:17;;;;;;;11.70;4.60;;;;;;;;;;5006729;28;20049;-63
2021/10/01 12:32:47;;;;;;;14.73;5.22;;;;;;;;;;5001773;28;20115;-63
2021/10/01 12:35:14;;;;;;;14.88;5.38;;;;;;;;;;4986561;28;20034;-63
2021/10/01 12:37:42;;;;;;;10.50;4.63;;;;;;;;;;5008640;28;20053;-63
2021/10/01 12:40:10;;;;;;;10.45;4.50;;;;;;;;;;5006382;28;20042;-63
2021/10/01 12:42:37;;;;;;;16.35;5.82;;;;;;;;;;4991052;28;20061;-62
2021/10/01 12:45:08;;;;;;;10.23;4.70;;;;;;;;;;5006993;28;20485;-63
2021/10/01 12:47:36;;;;;;;8.55;4.03;;;;;;;;;;4984549;28;20109;-63
2021/10/01 12:50:07;;;;;;;11.10;4.93;;;;;;;;;;4992329;28;20220;-63
2021/10/01 12:52:34;;;;;;;8.73;4.05;;;;;;;;;;4986673;28;20208;-62
2021/10/01 12:55:04;;;;;;;7.65;3.88;;;;;;;;;;5002912;28;20050;-63
2021/10/01 12:57:30;;;;;;;8.63;4.00;;;;;;;;;;4988631;28;20481;-62
2021/10/01 12:59:58;;;;;;;9.05;4.90;;;;;;;;;;4995753;28;20100;-62
2021/10/01 13:02:26;;;;;;;11.15;4.80;;;;;;;;;;4996341;28;20085;-79
2021/10/01 13:04:55;;;;;;;12.23;4.78;;;;;;;;;;5012907;28;20053;-63
2021/10/01 13:07:25;;;;;;;12.93;5.30;;;;;;;;;;5018181;28;20383;-63
2021/10/01 13:09:52;;;;;;;14.25;5.20;;;;;;;;;;5022499;28;20037;-63
2021/10/01 13:12:32;;;;;;;12.18;5.53;;;;;;;;;;5008176;28;20046;-63
2021/10/01 13:15:09;;;;;;;13.35;5.40;;;;;;;;;;4995156;28;20130;-63
2021/10/01 13:17:35;;;;;;;9.98;4.70;;;;;;;;;;4998930;28;20104;-63
2021/10/01 13:20:01;;;;;;;10.85;5.18;;;;;;;;;;5000554;28;20041;-63
2021/10/01 13:22:47;;;;;;;9.30;5.40;;;;;;;;;;4989793;28;20482;-63
2021/10/01 13:25:21;;;;;;;18.08;6.95;;;;;;;;;;4991632;28;20046;-62
2021/10/01 13:27:50;;;;;;;15.55;6.80;;;;;;;;;;4994472;28;20049;-63
2021/10/01 13:30:17;;;;;;;13.70;6.95;;;;;;;;;;5004812;28;20042;-62
2021/10/01 13:32:43;;;;;;;14.00;6.50;;;;;;;;;;5003801;28;20084;-62
2021/10/01 13:35:11;;;;;;;11.50;6.15;;;;;;;;;;4989621;28;20132;-62
2021/10/01 13:37:37;;;;;;;13.15;6.68;;;;;;;;;;5005630;28;20117;-62
2021/10/01 13:40:04;;;;;;;15.38;7.45;;;;;;;;;;5000577;28;20054;-68
2021/10/01 13:42:30;;;;;;;11.73;6.28;;;;;;;;;;4987672;28;20101;-68
2021/10/01 13:44:57;;;;;;;18.23;7.25;;;;;;;;;;4988868;28;21231;-67
2021/10/01 13:47:23;;;;;;;17.45;7.65;;;;;;;;;;4982161;28;20148;-67
2021/10/01 13:49:49;;;;;;;17.48;6.32;;;;;;;;;;5000073;28;20054;-69
2021/10/01 13:52:15;;;;;;;13.40;6.30;;;;;;;;;;4988503;28;20085;-69
2021/10/01 13:54:41;;;;;;;19.65;6.57;;;;;;;;;;5004124;28;20124;-69
2021/10/01 13:57:08;;;;;;;16.55;7.50;;;;;;;;;;5017566;28;20054;-67
2021/10/01 13:59:34;;;;;;;15.25;7.50;;;;;;;;;;5010473;28;20125;-66
2021/10/01 14:02:00;;;;;;;16.35;7.60;;;;;;;;;;5033181;28;20069;-68
2021/10/01 14:04:27;;;;;;;14.63;6.55;;;;;;;;;;5033268;28;20132;-68
2021/10/01 14:06:54;;;;;;;14.77;6.82;;;;;;;;;;5034605;28;20112;-67
2021/10/01 14:09:20;;;;;;;17.55;7.07;;;;;;;;;;5032687;28;20460;-67
2021/10/01 14:11:46;;;;;;;17.17;7.35;;;;;;;;;;5033236;28;20053;-68
2021/10/01 14:14:12;;;;;;;19.00;7.35;;;;;;;;;;5034757;28;20040;-68
2021/10/01 14:16:38;;;;;;;12.77;6.95;;;;;;;;;;5034220;28;20104;-68
2021/10/01 14:19:04;;;;;;;12.27;6.38;;;;;;;;;;5029800;28;20088;-68
2021/10/01 14:21:31;;;;;;;14.13;6.10;;;;;;;;;;5024264;28;20129;-67
2021/10/01 14:23:57;;;;;;;14.82;6.50;;;;;;;;;;5034191;28;20053;-68
2021/10/01 14:26:26;;;;;;;15.38;6.10;;;;;;;;;;5034514;28;20030;-68
2021/10/01 14:28:53;;;;;;;16.17;6.32;;;;;;;;;;5033599;28;20134;-67
2021/10/01 14:31:19;;;;;;;12.90;6.43;;;;;;;;;;5029077;28;20034;-68
2021/10/01 14:33:46;;;;;;;13.10;5.82;;;;;;;;;;5023009;28;20046;-67
2021/10/01 14:36:12;;;;;;;16.30;6.63;;;;;;;;;;5032853;28;20129;-68
2021/10/01 14:38:39;;;;;;;13.60;6.13;;;;;;;;;;5034187;28;20041;-68
2021/10/01 14:41:05;;;;;;;11.77;5.72;;;;;;;;;;5034035;28;20037;-68
2021/10/01 14:43:32;;;;;;;14.10;5.53;;;;;;;;;;5028819;28;20049;-68
2021/10/01 14:45:59;;;;;;;18.02;5.88;;;;;;;;;;5029970;28;20052;-68
2021/10/01 14:48:25;;;;;;;13.88;5.43;;;;;;;;;;5033988;28;20460;-68
2021/10/01 14:50:52;;;;;;;14.73;6.03;;;;;;;;;;5032899;28;20551;-68
2021/10/01 14:53:18;;;;;;;13.20;5.32;;;;;;;;;;5029129;28;20050;-68
2021/10/01 14:55:44;;;;;;;11.32;5.35;;;;;;;;;;5021412;28;20054;-68
2021/10/01 14:58:10;;;;;;;17.05;5.20;;;;;;;;;;5026841;28;20441;-67
2021/10/01 15:00:36;;;;;;;14.98;4.93;;;;;;;;;;5024281;28;20049;-68
2021/10/01 15:03:03;;;;;;;18.67;6.93;;;;;;;;;;5033530;28;20520;-68
2021/10/01 15:05:31;;;;;;;15.20;6.43;;;;;;;;;;5032824;28;20034;-68
2021/10/01 15:07:57;;;;;;;13.13;5.95;;;;;;;;;;5029753;28;20053;-68
2021/10/01 15:10:23;;;;;;;17.25;6.80;;;;;;;;;;5033751;28;20041;-67
2021/10/01 15:12:50;;;;;;;16.90;6.70;;;;;;;;;;5032622;28;20041;-68
2021/10/01 15:15:16;;;;;;;14.90;6.03;;;;;;;;;;5030326;28;20450;-68
2021/10/01 15:17:42;;;;;;;13.10;6.13;;;;;;;;;;5031586;28;20049;-68
2021/10/01 15:20:09;;;;;;;13.27;5.55;;;;;;;;;;5028709;28;20133;-68
2021/10/01 15:22:36;;;;;;;13.15;7.15;;;;;;;;;;5028119;28;20380;-67
2021/10/01 15:25:02;;;;;;;16.48;7.07;;;;;;;;;;5024097;28;20072;-68
2021/10/01 15:27:28;;;;;;;14.18;6.43;;;;;;;;;;5028705;28;20120;-68
2021/10/01 15:30:04;;;;;;;17.55;6.80;;;;;;;;;;5021683;28;20049;-68
2021/10/01 15:32:30;;;;;;;18.40;6.93;;;;;;;;;;5030727;28;20117;-67
2021/10/01 15:34:57;;;;;;;22.08;7.43;;;;;;;;;;5033356;28;20045;-67
2021/10/01 15:37:23;;;;;;;20.65;7.65;;;;;;;;;;5032960;28;20378;-68
2021/10/01 15:39:49;;;;;;;17.25;7.10;;;;;;;;;;5027849;28;20048;-67
2021/10/01 15:42:16;;;;;;;16.77;7.85;;;;;;;;;;5026461;28;20045;-68
2021/10/01 15:44:42;;;;;;;15.15;6.40;;;;;;;;;;5032713;28;20113;-68
2021/10/01 15:47:08;;;;;;;18.92;6.65;;;;;;;;;;5027477;28;20467;-67
2021/10/01 15:49:35;;;;;;;12.50;6.45;;;;;;;;;;5025665;28;20060;-68
2021/10/01 15:52:01;;;;;;;14.18;5.95;;;;;;;;;;5022810;28;20404;-67
2021/10/01 15:54:27;;;;;;;14.25;6.68;;;;;;;;;;5031940;28;20036;-68
2021/10/01 15:56:54;;;;;;;17.77;6.78;;;;;;;;;;5032412;28;20053;-68
2021/10/01 15:59:20;;;;;;;20.08;6.78;;;;;;;;;;5011491;28;20079;-68
2021/10/01 16:01:46;;;;;;;16.63;6.97;;;;;;;;;;4996766;28;20113;-67
2021/10/01 16:04:13;;;;;;;16.10;5.82;;;;;;;;;;5003890;28;20050;-68
2021/10/01 16:06:40;;;;;;;14.23;6.20;;;;;;;;;;5030900;28;20564;-67